createdAt,value
2018-07-30T00:00:57.295Z,9.90
2018-07-30T00:03:26.656Z,10.43
2018-07-30T00:05:56.115Z,11.57
2018-07-30T00:08:26.235Z,10.33
2018-07-30T00:10:55.637Z,10.13
2018-07-30T00:13:25.517Z,10.87
2018-07-30T00:15:54.857Z,10.40
2018-07-30T00:18:24.255Z,10.10
2018-07-30T00:20:53.675Z,10.10
2018-07-30T00:23:23.175Z,10.20
2018-07-30T00:25:52.575Z,10.47
2018-07-30T00:28:22.139Z,10.40
2018-07-30T00:30:51.955Z,10.30
2018-07-30T00:33:21.595Z,10.30
2018-07-30T00:35:51.078Z,11.23
2018-07-30T00:40:53.720Z,10.50
2018-07-30T00:43:23.219Z,11.33
2018-07-30T00:45:52.459Z,11.60
2018-07-30T00:48:21.727Z,11.43
2018-07-30T00:50:51.019Z,11.83
2018-07-30T00:53:20.459Z,12.37
2018-07-30T00:55:50.080Z,11.60
2018-07-30T00:58:19.394Z,11.57
2018-07-30T01:00:48.777Z,12.17
2018-07-30T01:03:18.275Z,11.47
2018-07-30T01:05:47.494Z,12.00
2018-07-30T01:08:16.694Z,12.77
2018-07-30T01:10:46.254Z,11.93
2018-07-30T01:13:15.655Z,11.80
2018-07-30T01:15:45.314Z,13.20
2018-07-30T01:18:14.734Z,11.33
2018-07-30T01:20:44.338Z,11.70
2018-07-30T01:23:13.634Z,11.67
2018-07-30T01:25:44.114Z,12.53
2018-07-30T01:28:13.416Z,12.03
2018-07-30T01:30:42.857Z,12.03
2018-07-30T01:33:12.354Z,11.27
2018-07-30T01:35:41.778Z,11.57
2018-07-30T01:38:11.094Z,11.70
2018-07-30T01:40:40.915Z,11.60
2018-07-30T01:43:10.195Z,12.30
2018-07-30T01:45:39.914Z,12.00
2018-07-30T01:48:09.415Z,12.67
2018-07-30T01:50:38.794Z,12.40
2018-07-30T01:53:08.294Z,12.40
2018-07-30T01:55:38.575Z,12.70
2018-07-30T01:58:08.294Z,12.90
2018-07-30T02:00:40.674Z,12.73
2018-07-30T02:03:10.114Z,12.30
2018-07-30T02:05:48.195Z,12.10
2018-07-30T02:08:17.555Z,12.30
2018-07-30T02:10:47.034Z,12.40
2018-07-30T02:13:18.400Z,12.63
2018-07-30T02:15:47.777Z,11.90
2018-07-30T02:18:17.275Z,13.20
2018-07-30T02:20:46.754Z,13.20
2018-07-30T02:24:03.295Z,12.77
2018-07-30T02:29:06.634Z,12.33
2018-07-30T02:31:36.074Z,12.93
2018-07-30T02:34:05.575Z,11.97
2018-07-30T02:36:34.934Z,11.90
2018-07-30T02:39:05.235Z,12.00
2018-07-30T02:41:35.896Z,11.40
2018-07-30T02:44:05.755Z,13.20
2018-07-30T02:46:35.095Z,12.53
2018-07-30T02:49:04.595Z,11.77
2018-07-30T02:51:34.024Z,12.13
2018-07-30T02:54:03.496Z,12.50
2018-07-30T02:56:32.835Z,12.60
2018-07-30T02:59:02.336Z,12.27
2018-07-30T03:01:33.160Z,11.37
2018-07-30T03:04:02.600Z,11.67
2018-07-30T03:06:32.219Z,11.80
2018-07-30T03:09:02.219Z,11.00
2018-07-30T03:11:31.519Z,11.77
2018-07-30T03:14:01.047Z,11.13
2018-07-30T03:16:30.640Z,12.03
2018-07-30T03:19:00.124Z,12.17
2018-07-30T03:21:29.561Z,11.53
2018-07-30T03:23:59.040Z,12.03
2018-07-30T03:26:28.481Z,12.00
2018-07-30T03:28:57.882Z,12.73
2018-07-30T03:31:27.400Z,13.63
2018-07-30T03:33:57.040Z,13.17
2018-07-30T03:36:26.460Z,13.10
2018-07-30T03:38:56.240Z,12.90
2018-07-30T03:41:25.300Z,13.03
2018-07-30T03:43:55.240Z,13.57
2018-07-30T03:46:24.180Z,13.60
2018-07-30T03:48:53.560Z,13.70
2018-07-30T03:51:23.121Z,13.20
2018-07-30T03:53:52.679Z,13.60
2018-07-30T03:56:22.019Z,14.10
2018-07-30T03:58:51.719Z,13.53
2018-07-30T04:01:20.717Z,14.13
2018-07-30T04:03:50.379Z,13.33
2018-07-30T04:06:19.851Z,13.47
2018-07-30T04:08:49.358Z,13.40
2018-07-30T04:11:18.695Z,13.20
2018-07-30T04:13:47.975Z,14.10
2018-07-30T04:16:17.701Z,13.63
2018-07-30T04:18:47.336Z,13.50
2018-07-30T04:21:17.517Z,13.63
2018-07-30T04:23:46.796Z,12.67
2018-07-30T04:26:16.116Z,13.10
2018-07-30T04:28:45.336Z,12.10
2018-07-30T04:31:19.035Z,12.50
2018-07-30T04:33:48.276Z,12.60
2018-07-30T04:36:17.596Z,12.80
2018-07-30T04:38:46.955Z,12.47
2018-07-30T04:41:16.535Z,12.07
2018-07-30T04:43:46.114Z,11.73
2018-07-30T04:46:15.397Z,12.30
2018-07-30T04:48:44.835Z,12.57
2018-07-30T04:51:14.195Z,11.40
2018-07-30T04:53:43.717Z,12.27
2018-07-30T04:56:13.075Z,12.03
2018-07-30T04:58:42.436Z,11.60
2018-07-30T05:01:11.902Z,11.87
2018-07-30T05:03:41.371Z,12.07
2018-07-30T05:06:11.242Z,12.17
2018-07-30T05:08:40.682Z,11.90
2018-07-30T05:11:10.138Z,11.93
2018-07-30T05:13:39.562Z,11.10
2018-07-30T05:16:08.963Z,12.05
2018-07-30T05:18:38.442Z,11.57
2018-07-30T05:21:07.782Z,11.60
2018-07-30T05:23:37.243Z,12.17
2018-07-30T05:26:07.403Z,11.38
2018-07-30T05:28:41.203Z,11.00
2018-07-30T05:31:10.683Z,11.87
2018-07-30T05:33:40.843Z,11.87
2018-07-30T05:36:10.583Z,12.37
2018-07-30T05:38:40.083Z,11.93
2018-07-30T05:41:09.804Z,12.10
2018-07-30T05:43:39.822Z,11.40
2018-07-30T05:46:09.428Z,11.87
2018-07-30T05:48:38.842Z,12.47
2018-07-30T05:51:08.665Z,12.55
2018-07-30T05:53:38.322Z,11.53
2018-07-30T05:56:09.222Z,12.28
2018-07-30T05:58:38.562Z,12.23
2018-07-30T06:01:12.656Z,11.65
2018-07-30T06:03:46.358Z,12.30
2018-07-30T06:06:16.017Z,12.30
2018-07-30T06:08:45.336Z,12.98
2018-07-30T06:11:15.876Z,12.45
2018-07-30T06:13:45.317Z,11.73
2018-07-30T06:16:14.696Z,12.80
2018-07-30T06:21:17.698Z,11.88
2018-07-30T06:23:47.316Z,12.37
2018-07-30T06:26:16.618Z,12.47
2018-07-30T06:28:50.456Z,12.18
2018-07-30T06:31:20.057Z,12.40
2018-07-30T06:33:49.534Z,12.45
2018-07-30T06:36:19.216Z,12.18
2018-07-30T06:38:48.897Z,11.75
2018-07-30T06:41:18.698Z,12.37
2018-07-30T06:44:19.080Z,12.37
2018-07-30T06:46:48.759Z,12.10
2018-07-30T06:49:18.337Z,11.55
2018-07-30T06:51:47.876Z,11.57
2018-07-30T06:54:17.579Z,12.60
2018-07-30T06:56:47.121Z,11.25
2018-07-30T06:59:16.636Z,11.70
2018-07-30T07:01:46.143Z,11.57
2018-07-30T07:04:15.721Z,11.63
2018-07-30T07:06:46.849Z,10.55
2018-07-30T07:09:20.361Z,11.00
2018-07-30T07:11:51.042Z,11.70
2018-07-30T07:14:20.400Z,10.60
2018-07-30T07:16:49.917Z,10.35
2018-07-30T07:19:19.726Z,11.38
2018-07-30T07:21:52.695Z,10.65
2018-07-30T07:24:22.041Z,10.80
2018-07-30T07:26:51.524Z,10.82
2018-07-30T07:29:40.839Z,11.18
2018-07-30T07:32:10.320Z,10.32
2018-07-30T07:34:39.660Z,10.63
2018-07-30T07:37:09.439Z,10.88
2018-07-30T07:39:38.919Z,11.25
2018-07-30T07:42:08.479Z,10.45
2018-07-30T07:44:37.880Z,10.80
2018-07-30T07:47:07.439Z,11.12
2018-07-30T07:49:37.000Z,11.05
2018-07-30T07:52:06.620Z,11.55
2018-07-30T07:54:36.461Z,11.22
2018-07-30T07:57:05.967Z,11.50
2018-07-30T07:59:35.740Z,11.08
2018-07-30T08:02:05.376Z,11.35
2018-07-30T08:04:35.096Z,10.95
2018-07-30T08:07:04.656Z,9.28
2018-07-30T08:09:34.337Z,10.60
2018-07-30T08:12:03.821Z,9.88
2018-07-30T08:14:37.262Z,10.08
2018-07-30T08:17:06.906Z,10.98
2018-07-30T08:19:36.341Z,10.40
2018-07-30T08:22:05.846Z,9.73
2018-07-30T08:24:35.566Z,9.58
2018-07-30T08:27:09.383Z,9.58
2018-07-30T08:29:38.929Z,9.30
2018-07-30T08:32:08.610Z,9.45
2018-07-30T08:34:38.073Z,9.23
2018-07-30T08:37:07.422Z,9.58
2018-07-30T08:39:36.640Z,9.03
2018-07-30T08:42:06.171Z,8.43
2018-07-30T08:44:35.546Z,8.80
2018-07-30T08:47:09.447Z,8.60
2018-07-30T08:49:39.155Z,8.28
2018-07-30T08:52:08.682Z,8.48
2018-07-30T08:54:42.324Z,8.40
2018-07-30T08:57:13.515Z,8.78
2018-07-30T09:02:16.096Z,7.53
2018-07-30T09:04:45.314Z,9.10
2018-07-30T09:07:14.560Z,8.65
2018-07-30T09:09:44.389Z,8.65
2018-07-30T09:12:13.836Z,8.58
2018-07-30T09:14:43.179Z,8.85
2018-07-30T09:17:38.197Z,8.40
2018-07-30T09:20:12.380Z,7.35
2018-07-30T09:22:41.871Z,8.28
2018-07-30T09:25:11.661Z,8.48
2018-07-30T09:27:41.100Z,8.33
2018-07-30T09:30:14.761Z,8.30
2018-07-30T09:32:44.460Z,8.88
2018-07-30T09:35:13.962Z,7.83
2018-07-30T09:37:43.401Z,8.05
2018-07-30T09:40:12.961Z,8.15
2018-07-30T09:42:42.502Z,8.50
2018-07-30T09:45:11.580Z,7.75
2018-07-30T09:47:41.024Z,8.45
2018-07-30T09:50:10.575Z,8.60
2018-07-30T09:52:40.336Z,8.53
2018-07-30T09:55:09.895Z,8.65
2018-07-30T09:57:39.196Z,8.38
2018-07-30T10:03:06.555Z,8.25
2018-07-30T10:05:35.996Z,8.43
2018-07-30T10:08:05.315Z,8.90
2018-07-30T10:10:34.598Z,8.30
2018-07-30T10:13:03.978Z,8.68
2018-07-30T10:15:33.702Z,8.10
2018-07-30T10:18:03.141Z,8.23
2018-07-30T10:20:33.179Z,8.73
2018-07-30T10:23:03.080Z,8.03
2018-07-30T10:25:32.798Z,8.90
2018-07-30T10:28:02.377Z,7.60
2018-07-30T10:30:31.721Z,8.18
2018-07-30T10:33:01.098Z,8.90
2018-07-30T10:35:30.537Z,7.80
2018-07-30T10:37:59.934Z,7.40
2018-07-30T10:40:29.337Z,8.45
2018-07-30T10:42:59.323Z,8.78
2018-07-30T10:45:28.696Z,9.58
2018-07-30T10:47:58.076Z,9.08
2018-07-30T10:50:27.516Z,8.90
2018-07-30T10:52:56.997Z,9.30
2018-07-30T10:55:26.297Z,8.30
2018-07-30T10:57:59.656Z,8.10
2018-07-30T11:00:28.718Z,7.45
2018-07-30T11:02:58.226Z,7.47
2018-07-30T11:05:27.642Z,8.00
2018-07-30T11:07:59.120Z,8.48
2018-07-30T11:10:28.519Z,8.88
2018-07-30T11:12:57.919Z,8.70
2018-07-30T11:15:27.719Z,8.50
2018-07-30T11:17:57.339Z,9.05
2018-07-30T11:20:26.697Z,7.97
2018-07-30T11:23:00.419Z,8.48
2018-07-30T11:25:29.818Z,8.43
2018-07-30T11:27:59.424Z,8.23
2018-07-30T11:30:28.977Z,8.20
2018-07-30T11:32:58.697Z,8.20
2018-07-30T11:35:28.256Z,7.92
2018-07-30T11:37:57.677Z,7.65
2018-07-30T11:40:31.336Z,7.75
2018-07-30T11:43:00.791Z,7.80
2018-07-30T11:58:24.536Z,7.53
2018-07-30T12:00:54.004Z,7.87
2018-07-30T12:03:23.297Z,8.05
2018-07-30T12:05:52.221Z,9.45
2018-07-30T12:08:21.716Z,9.70
2018-07-30T12:10:51.157Z,9.40
2018-07-30T12:13:20.477Z,8.90
2018-07-30T12:15:51.917Z,9.03
2018-07-30T12:18:21.376Z,9.03
2018-07-30T12:20:50.699Z,8.25
2018-07-30T12:23:20.636Z,8.13
2018-07-30T12:25:50.041Z,8.63
2018-07-30T12:28:19.878Z,8.05
2018-07-30T12:30:49.277Z,8.05
2018-07-30T12:33:19.196Z,8.93
2018-07-30T12:35:48.638Z,7.85
2018-07-30T12:38:17.956Z,8.45
2018-07-30T12:40:47.400Z,8.20
2018-07-30T12:43:16.696Z,8.58
2018-07-30T12:45:47.879Z,7.83
2018-07-30T12:48:17.278Z,8.28
2018-07-30T12:50:47.278Z,7.90
2018-07-30T12:53:16.738Z,8.05
2018-07-30T12:55:45.962Z,8.20
2018-07-30T12:58:15.638Z,8.10
2018-07-30T13:00:44.962Z,8.73
2018-07-30T13:03:14.999Z,8.68
2018-07-30T13:05:44.676Z,8.35
2018-07-30T13:08:18.386Z,8.53
2018-07-30T13:10:48.277Z,8.68
2018-07-30T13:13:23.869Z,7.97
2018-07-30T13:15:53.760Z,8.60
2018-07-30T13:18:26.157Z,8.38
2018-07-30T13:20:55.702Z,7.87
2018-07-30T13:23:25.184Z,7.70
2018-07-30T13:25:54.548Z,8.28
2018-07-30T13:28:23.817Z,8.18
2018-07-30T13:30:53.165Z,7.83
2018-07-30T13:33:22.495Z,7.90
2018-07-30T13:35:51.336Z,7.87
2018-07-30T13:38:20.602Z,7.47
2018-07-30T13:40:49.965Z,7.97
2018-07-30T13:43:19.237Z,8.48
2018-07-30T13:45:53.217Z,8.23
2018-07-30T13:48:26.577Z,8.58
2018-07-30T13:50:56.357Z,8.50
2018-07-30T13:53:25.737Z,8.63
2018-07-30T13:55:55.197Z,8.53
2018-07-30T13:58:24.717Z,8.25
2018-07-30T14:00:54.344Z,8.68
2018-07-30T14:03:23.764Z,8.20
2018-07-30T14:05:53.225Z,7.55
2018-07-30T14:10:56.004Z,7.87
2018-07-30T14:13:25.384Z,8.35
2018-07-30T14:15:54.924Z,7.72
2018-07-30T14:18:24.263Z,9.23
2018-07-30T14:20:53.707Z,8.45
2018-07-30T14:23:23.239Z,8.40
2018-07-30T14:25:52.858Z,7.80
2018-07-30T14:28:26.935Z,8.23
2018-07-30T14:30:56.598Z,8.30
2018-07-30T14:33:26.219Z,8.48
2018-07-30T14:35:56.478Z,9.05
2018-07-30T14:38:26.418Z,8.88
2018-07-30T14:40:59.871Z,9.55
2018-07-30T14:43:29.518Z,8.93
2018-07-30T14:45:59.078Z,8.83
2018-07-30T14:48:28.298Z,9.33
2018-07-30T14:50:57.538Z,9.08
2018-07-30T14:53:27.441Z,9.55
2018-07-30T14:55:56.999Z,9.93
2018-07-30T14:58:26.480Z,10.25
2018-07-30T15:00:55.844Z,9.50
2018-07-30T15:03:25.162Z,10.55
2018-07-30T15:05:54.562Z,11.33
2018-07-30T15:08:24.063Z,11.70
2018-07-30T15:10:53.358Z,11.33
2018-07-30T15:13:22.617Z,11.33
2018-07-30T15:15:52.058Z,12.13
2018-07-30T15:18:22.897Z,11.48
2018-07-30T15:20:52.040Z,10.88
2018-07-30T15:23:21.639Z,11.68
2018-07-30T15:25:51.052Z,11.50
2018-07-30T15:28:20.759Z,11.78
2018-07-30T15:30:54.199Z,11.68
2018-07-30T15:33:23.581Z,11.55
2018-07-30T15:35:53.326Z,11.50
2018-07-30T15:38:23.279Z,11.50
2018-07-30T15:40:52.558Z,10.53
2018-07-30T15:43:21.876Z,11.03
2018-07-30T15:45:51.399Z,11.63
2018-07-30T15:48:20.597Z,11.25
2018-07-30T15:50:49.798Z,11.83
2018-07-30T15:53:19.059Z,10.58
2018-07-30T15:55:48.276Z,10.95
2018-07-30T15:58:41.582Z,11.20
2018-07-30T16:01:11.189Z,10.43
2018-07-30T16:03:40.644Z,10.25
2018-07-30T16:06:09.904Z,10.00
2018-07-30T16:08:39.118Z,11.38
2018-07-30T16:11:08.553Z,11.05
2018-07-30T16:13:37.888Z,10.63
2018-07-30T16:16:07.338Z,9.98
2018-07-30T16:18:36.717Z,10.15
2018-07-30T16:21:06.061Z,10.30
2018-07-30T16:23:34.880Z,11.10
2018-07-30T16:26:04.119Z,10.82
2018-07-30T16:28:32.880Z,10.82
2018-07-30T16:31:02.107Z,11.30
2018-07-30T16:33:31.301Z,11.70
2018-07-30T16:36:00.581Z,11.48
2018-07-30T16:38:29.900Z,11.40
2018-07-30T16:40:59.560Z,12.03
2018-07-30T16:43:28.876Z,11.65
2018-07-30T16:45:58.176Z,11.70
2018-07-30T16:48:31.796Z,12.60
2018-07-30T16:51:01.247Z,12.73
2018-07-30T16:53:30.716Z,11.80
2018-07-30T16:56:01.537Z,12.23
2018-07-30T16:58:31.016Z,11.80
2018-07-30T17:01:00.578Z,11.43
2018-07-30T17:03:30.202Z,11.53
2018-07-30T17:06:00.041Z,11.03
2018-07-30T17:08:29.760Z,10.80
2018-07-30T17:10:59.520Z,11.27
2018-07-30T17:13:29.624Z,10.77
2018-07-30T17:15:59.401Z,9.80
2018-07-30T17:18:29.100Z,9.97
2018-07-30T17:20:59.629Z,9.20
2018-07-30T17:23:29.321Z,9.70
2018-07-30T17:25:59.061Z,9.37
2018-07-30T17:28:29.800Z,9.63
2018-07-30T17:30:59.362Z,9.27
2018-07-30T17:33:29.080Z,9.13
2018-07-30T17:35:58.701Z,9.20
2018-07-30T17:38:28.540Z,9.50
2018-07-30T17:40:58.282Z,10.23
2018-07-30T17:43:28.049Z,10.00
2018-07-30T17:45:57.795Z,10.13
2018-07-30T17:48:27.520Z,10.77
2018-07-30T17:50:57.660Z,12.50
2018-07-30T17:53:27.401Z,12.90
2018-07-30T17:55:57.060Z,9.97
2018-07-30T17:58:26.681Z,10.70
2018-07-30T18:00:56.160Z,9.67
2018-07-30T18:03:26.144Z,10.00
2018-07-30T18:05:57.206Z,10.50
2018-07-30T18:08:27.361Z,9.83
2018-07-30T18:10:56.990Z,10.30
2018-07-30T18:13:26.661Z,10.17
2018-07-30T18:15:56.901Z,10.17
2018-07-30T18:18:26.469Z,9.83
2018-07-30T18:20:56.222Z,9.80
2018-07-30T18:23:26.262Z,9.80
2018-07-30T18:25:56.102Z,9.57
2018-07-30T18:28:25.395Z,10.27
2018-07-30T18:30:55.295Z,9.63
2018-07-30T18:33:28.773Z,10.07
2018-07-30T18:36:55.743Z,9.97
2018-07-30T18:39:25.248Z,10.20
2018-07-30T18:41:55.791Z,9.90
2018-07-30T18:45:01.439Z,10.23
2018-07-30T18:47:30.802Z,9.70
2018-07-30T18:49:59.812Z,8.90
2018-07-30T19:38:04.385Z,10.27
2018-07-30T19:40:50.163Z,10.47
2018-07-30T19:43:19.851Z,10.40
2018-07-30T19:45:49.481Z,10.30
2018-07-30T19:48:19.526Z,10.67
2018-07-30T19:50:49.203Z,9.50
2018-07-30T19:53:18.302Z,10.50
2018-07-30T19:55:49.185Z,10.77
2018-07-30T19:58:19.111Z,10.47
2018-07-30T20:00:48.780Z,9.90
2018-07-30T20:03:18.419Z,10.87
2018-07-30T20:05:48.219Z,10.57
2018-07-30T20:08:17.972Z,10.50
2018-07-30T20:10:47.960Z,10.93
2018-07-30T20:13:17.600Z,10.83
2018-07-30T20:15:47.140Z,11.10
2018-07-30T20:18:16.619Z,11.03
2018-07-30T20:20:46.485Z,10.20
2018-07-30T20:23:16.308Z,11.00
2018-07-30T20:25:46.082Z,11.20
2018-07-30T20:28:15.786Z,11.47
2018-07-30T20:30:45.507Z,10.60
2018-07-30T20:33:15.186Z,11.17
2018-07-30T20:35:44.887Z,10.70
2018-07-30T20:38:14.806Z,11.03
2018-07-30T20:40:44.307Z,11.40
2018-07-30T20:43:14.027Z,11.70
2018-07-30T20:45:43.839Z,11.27
2018-07-30T20:48:13.799Z,11.30
2018-07-30T20:50:43.366Z,11.80
2018-07-30T20:53:13.502Z,12.23
2018-07-30T20:55:45.602Z,12.13
2018-07-30T20:58:15.381Z,12.23
2018-07-30T21:00:45.223Z,11.70
2018-07-30T21:03:15.240Z,11.40
2018-07-30T21:05:45.640Z,11.60
2018-07-30T21:08:16.360Z,11.70
2018-07-30T21:10:47.420Z,11.73
2018-07-30T21:13:17.800Z,11.80
2018-07-30T21:15:47.599Z,12.07
2018-07-30T21:18:17.240Z,11.37
2018-07-30T21:20:46.280Z,12.20
2018-07-30T21:23:16.640Z,11.57
2018-07-30T21:25:47.119Z,11.03
2018-07-30T21:28:16.919Z,11.17
2018-07-30T21:30:46.560Z,12.13
2018-07-30T21:33:16.801Z,11.23
2018-07-30T21:35:46.320Z,10.47
2018-07-30T21:38:15.940Z,10.87
2018-07-30T21:40:46.160Z,11.00
2018-07-30T21:43:15.760Z,11.03
2018-07-30T21:45:46.280Z,10.67
2018-07-30T21:48:16.060Z,10.60
2018-07-30T21:50:45.801Z,10.67
2018-07-30T21:53:15.460Z,10.70
2018-07-30T21:55:45.340Z,10.53
2018-07-30T21:58:15.100Z,10.17
2018-07-30T22:00:49.988Z,9.77
2018-07-30T22:03:20.053Z,10.27
2018-07-30T22:05:53.970Z,9.67
2018-07-30T22:08:24.169Z,10.23
2018-07-30T22:10:54.149Z,10.47
2018-07-30T22:13:23.949Z,10.30
2018-07-30T22:15:53.673Z,9.07
2018-07-30T22:18:23.719Z,9.57
2018-07-30T22:20:53.479Z,9.73
2018-07-30T22:23:22.979Z,9.33
2018-07-30T22:25:52.639Z,10.40
2018-07-30T22:28:22.499Z,9.03
2018-07-30T22:30:52.268Z,10.73
2018-07-30T22:33:22.025Z,10.70
2018-07-30T22:35:51.719Z,10.73
2018-07-30T22:38:21.859Z,10.70
2018-07-30T22:40:51.418Z,11.77
2018-07-30T22:43:20.986Z,11.27
2018-07-30T22:45:50.122Z,11.23
2018-07-30T22:48:19.898Z,11.07
2018-07-30T22:50:49.638Z,11.17
2018-07-30T22:53:19.099Z,10.70
2018-07-30T22:55:48.739Z,10.93
2018-07-30T22:58:18.680Z,10.33
2018-07-30T23:00:48.699Z,10.90
2018-07-30T23:03:19.179Z,10.60
2018-07-30T23:05:48.800Z,11.63
2018-07-30T23:08:18.601Z,12.03
2018-07-30T23:10:48.239Z,11.83
2018-07-30T23:13:17.799Z,11.37
2018-07-30T23:15:47.679Z,11.20
2018-07-30T23:18:17.580Z,11.03
2018-07-30T23:20:46.879Z,10.63
2018-07-30T23:23:16.522Z,10.80
2018-07-30T23:25:46.179Z,10.60
2018-07-30T23:28:16.040Z,10.80
2018-07-30T23:33:19.080Z,10.77
2018-07-30T23:35:48.839Z,10.80
2018-07-30T23:38:18.699Z,10.37
2018-07-30T23:40:48.699Z,11.07
2018-07-30T23:43:19.422Z,11.00
2018-07-30T23:45:49.199Z,10.60
2018-07-30T23:48:18.923Z,10.50
2018-07-30T23:50:48.658Z,10.70
2018-07-30T23:53:18.318Z,10.97
2018-07-30T23:55:48.181Z,10.63
2018-07-30T23:58:18.179Z,9.83
